sensor_id;sensor_type;location;lat;lon;timestamp;P1;durP1;ratioP1;P2;durP2;ratioP2
34988;SDS011;21192;40.182;44.516;2023-05-14T00:01:38;6.82;;;3.38;;
34988;SDS011;21192;40.182;44.516;2023-05-14T00:04:05;8.93;;;3.70;;
34988;SDS011;21192;40.182;44.516;2023-05-14T00:06:31;8.90;;;3.90;;
34988;SDS011;21192;40.182;44.516;2023-05-14T00:08:57;10.90;;;3.67;;
34988;SDS011;21192;40.182;44.516;2023-05-14T00:11:22;10.85;;;3.63;;
34988;SDS011;21192;40.182;44.516;2023-05-14T00:13:49;10.25;;;3.45;;
34988;SDS011;21192;40.182;44.516;2023-05-14T00:16:15;7.20;;;3.22;;
34988;SDS011;21192;40.182;44.516;2023-05-14T00:18:40;8.48;;;3.60;;
34988;SDS011;21192;40.182;44.516;2023-05-14T00:21:06;9.90;;;3.65;;
34988;SDS011;21192;40.182;44.516;2023-05-14T00:23:32;6.75;;;3.28;;
34988;SDS011;21192;40.182;44.516;2023-05-14T00:25:58;7.28;;;3.13;;
34988;SDS011;21192;40.182;44.516;2023-05-14T00:28:24;8.00;;;3.63;;
34988;SDS011;21192;40.182;44.516;2023-05-14T00:30:50;8.93;;;3.50;;
34988;SDS011;21192;40.182;44.516;2023-05-14T00:33:16;7.60;;;4.03;;
34988;SDS011;21192;40.182;44.516;2023-05-14T00:35:41;7.90;;;3.30;;
34988;SDS011;21192;40.182;44.516;2023-05-14T00:38:07;7.47;;;3.72;;
34988;SDS011;21192;40.182;44.516;2023-05-14T00:40:33;12.45;;;3.33;;
34988;SDS011;21192;40.182;44.516;2023-05-14T00:42:59;7.63;;;3.38;;
34988;SDS011;21192;40.182;44.516;2023-05-14T00:45:25;11.35;;;4.03;;
34988;SDS011;21192;40.182;44.516;2023-05-14T00:47:52;9.65;;;3.97;;
34988;SDS011;21192;40.182;44.516;2023-05-14T00:50:18;6.55;;;3.40;;
34988;SDS011;21192;40.182;44.516;2023-05-14T00:52:45;10.43;;;3.90;;
34988;SDS011;21192;40.182;44.516;2023-05-14T00:55:12;8.70;;;3.88;;
34988;SDS011;21192;40.182;44.516;2023-05-14T00:57:40;8.02;;;3.78;;
34988;SDS011;21192;40.182;44.516;2023-05-14T01:00:06;7.38;;;3.45;;
34988;SDS011;21192;40.182;44.516;2023-05-14T01:02:32;10.25;;;3.50;;
34988;SDS011;21192;40.182;44.516;2023-05-14T01:04:58;9.32;;;3.60;;
34988;SDS011;21192;40.182;44.516;2023-05-14T01:07:29;8.05;;;3.50;;
34988;SDS011;21192;40.182;44.516;2023-05-14T01:10:13;9.45;;;3.28;;
34988;SDS011;21192;40.182;44.516;2023-05-14T01:13:11;6.28;;;3.80;;
34988;SDS011;21192;40.182;44.516;2023-05-14T01:15:43;9.35;;;4.13;;
34988;SDS011;21192;40.182;44.516;2023-05-14T01:18:12;10.02;;;3.75;;
34988;SDS011;21192;40.182;44.516;2023-05-14T01:20:41;11.02;;;4.13;;
34988;SDS011;21192;40.182;44.516;2023-05-14T01:23:08;10.60;;;4.10;;
34988;SDS011;21192;40.182;44.516;2023-05-14T01:25:34;14.40;;;3.80;;
34988;SDS011;21192;40.182;44.516;2023-05-14T01:30:42;10.93;;;4.35;;
34988;SDS011;21192;40.182;44.516;2023-05-14T01:33:13;11.48;;;4.13;;
34988;SDS011;21192;40.182;44.516;2023-05-14T01:35:42;10.65;;;4.53;;
34988;SDS011;21192;40.182;44.516;2023-05-14T01:38:10;10.40;;;4.30;;
34988;SDS011;21192;40.182;44.516;2023-05-14T01:40:37;11.13;;;4.13;;
34988;SDS011;21192;40.182;44.516;2023-05-14T01:43:04;12.38;;;4.45;;
34988;SDS011;21192;40.182;44.516;2023-05-14T01:45:30;6.93;;;3.85;;
34988;SDS011;21192;40.182;44.516;2023-05-14T01:47:59;7.88;;;3.45;;
34988;SDS011;21192;40.182;44.516;2023-05-14T01:50:25;8.35;;;3.30;;
34988;SDS011;21192;40.182;44.516;2023-05-14T01:52:51;7.95;;;3.08;;
34988;SDS011;21192;40.182;44.516;2023-05-14T01:55:23;9.50;;;3.10;;
34988;SDS011;21192;40.182;44.516;2023-05-14T01:57:49;7.93;;;3.13;;
34988;SDS011;21192;40.182;44.516;2023-05-14T02:00:16;10.25;;;3.28;;
34988;SDS011;21192;40.182;44.516;2023-05-14T02:02:43;6.75;;;3.17;;
34988;SDS011;21192;40.182;44.516;2023-05-14T02:05:09;10.65;;;3.50;;
34988;SDS011;21192;40.182;44.516;2023-05-14T02:07:35;7.22;;;3.45;;
34988;SDS011;21192;40.182;44.516;2023-05-14T02:10:01;10.65;;;3.42;;
34988;SDS011;21192;40.182;44.516;2023-05-14T02:12:27;5.55;;;3.30;;
34988;SDS011;21192;40.182;44.516;2023-05-14T02:14:53;5.57;;;3.10;;
34988;SDS011;21192;40.182;44.516;2023-05-14T02:17:19;6.28;;;3.40;;
34988;SDS011;21192;40.182;44.516;2023-05-14T02:19:45;8.15;;;3.50;;
34988;SDS011;21192;40.182;44.516;2023-05-14T02:22:11;7.00;;;2.80;;
34988;SDS011;21192;40.182;44.516;2023-05-14T02:24:37;8.57;;;3.38;;
34988;SDS011;21192;40.182;44.516;2023-05-14T02:27:04;11.18;;;3.55;;
34988;SDS011;21192;40.182;44.516;2023-05-14T02:29:30;8.75;;;4.18;;
34988;SDS011;21192;40.182;44.516;2023-05-14T02:31:56;7.38;;;3.50;;
34988;SDS011;21192;40.182;44.516;2023-05-14T02:34:22;5.75;;;2.83;;
34988;SDS011;21192;40.182;44.516;2023-05-14T02:36:47;6.95;;;2.90;;
34988;SDS011;21192;40.182;44.516;2023-05-14T02:39:13;6.80;;;2.63;;
34988;SDS011;21192;40.182;44.516;2023-05-14T02:41:39;6.25;;;3.13;;
34988;SDS011;21192;40.182;44.516;2023-05-14T02:44:05;6.82;;;3.25;;
34988;SDS011;21192;40.182;44.516;2023-05-14T02:46:31;6.72;;;3.40;;
34988;SDS011;21192;40.182;44.516;2023-05-14T02:48:57;11.13;;;3.63;;
34988;SDS011;21192;40.182;44.516;2023-05-14T02:51:23;7.78;;;3.50;;
34988;SDS011;21192;40.182;44.516;2023-05-14T02:53:49;7.07;;;3.35;;
34988;SDS011;21192;40.182;44.516;2023-05-14T02:56:15;5.85;;;3.25;;
34988;SDS011;21192;40.182;44.516;2023-05-14T02:58:40;8.02;;;3.80;;
34988;SDS011;21192;40.182;44.516;2023-05-14T03:01:06;9.68;;;3.60;;
34988;SDS011;21192;40.182;44.516;2023-05-14T03:03:32;6.85;;;3.33;;
34988;SDS011;21192;40.182;44.516;2023-05-14T03:05:59;7.57;;;3.67;;
34988;SDS011;21192;40.182;44.516;2023-05-14T03:08:25;11.30;;;3.72;;
34988;SDS011;21192;40.182;44.516;2023-05-14T03:10:50;7.78;;;3.80;;
34988;SDS011;21192;40.182;44.516;2023-05-14T03:13:16;8.20;;;4.28;;
34988;SDS011;21192;40.182;44.516;2023-05-14T03:15:44;10.68;;;4.65;;
34988;SDS011;21192;40.182;44.516;2023-05-14T03:18:11;9.20;;;4.72;;
34988;SDS011;21192;40.182;44.516;2023-05-14T03:20:37;14.10;;;5.05;;
34988;SDS011;21192;40.182;44.516;2023-05-14T03:23:03;9.65;;;4.97;;
34988;SDS011;21192;40.182;44.516;2023-05-14T03:25:29;9.18;;;4.63;;
34988;SDS011;21192;40.182;44.516;2023-05-14T03:27:55;7.90;;;4.60;;
34988;SDS011;21192;40.182;44.516;2023-05-14T03:30:21;10.20;;;4.88;;
34988;SDS011;21192;40.182;44.516;2023-05-14T03:32:47;13.48;;;4.70;;
34988;SDS011;21192;40.182;44.516;2023-05-14T03:35:12;9.23;;;4.90;;
34988;SDS011;21192;40.182;44.516;2023-05-14T03:37:38;9.75;;;4.15;;
34988;SDS011;21192;40.182;44.516;2023-05-14T03:40:04;9.68;;;4.53;;
34988;SDS011;21192;40.182;44.516;2023-05-14T03:42:32;10.93;;;4.35;;
34988;SDS011;21192;40.182;44.516;2023-05-14T03:44:57;10.07;;;4.55;;
34988;SDS011;21192;40.182;44.516;2023-05-14T03:47:23;8.95;;;4.05;;
34988;SDS011;21192;40.182;44.516;2023-05-14T03:49:49;8.77;;;4.65;;
34988;SDS011;21192;40.182;44.516;2023-05-14T03:52:15;7.85;;;4.05;;
34988;SDS011;21192;40.182;44.516;2023-05-14T03:54:41;9.27;;;4.53;;
34988;SDS011;21192;40.182;44.516;2023-05-14T03:57:06;6.75;;;3.80;;
34988;SDS011;21192;40.182;44.516;2023-05-14T03:59:32;9.60;;;4.32;;
34988;SDS011;21192;40.182;44.516;2023-05-14T04:01:58;9.85;;;4.60;;
34988;SDS011;21192;40.182;44.516;2023-05-14T04:04:24;8.35;;;4.75;;
34988;SDS011;21192;40.182;44.516;2023-05-14T04:06:50;11.15;;;4.65;;
34988;SDS011;21192;40.182;44.516;2023-05-14T04:09:16;7.72;;;3.88;;
34988;SDS011;21192;40.182;44.516;2023-05-14T04:11:41;8.88;;;4.45;;
34988;SDS011;21192;40.182;44.516;2023-05-14T04:14:07;10.40;;;4.00;;
34988;SDS011;21192;40.182;44.516;2023-05-14T04:16:33;11.07;;;4.80;;
34988;SDS011;21192;40.182;44.516;2023-05-14T04:19:00;11.20;;;4.15;;
34988;SDS011;21192;40.182;44.516;2023-05-14T04:21:28;9.75;;;4.65;;
34988;SDS011;21192;40.182;44.516;2023-05-14T04:23:53;9.98;;;4.47;;
34988;SDS011;21192;40.182;44.516;2023-05-14T04:26:19;9.48;;;4.53;;
34988;SDS011;21192;40.182;44.516;2023-05-14T04:28:45;11.82;;;4.85;;
34988;SDS011;21192;40.182;44.516;2023-05-14T04:31:11;10.35;;;4.28;;
34988;SDS011;21192;40.182;44.516;2023-05-14T04:33:37;11.98;;;4.03;;
34988;SDS011;21192;40.182;44.516;2023-05-14T04:36:04;8.52;;;3.92;;
34988;SDS011;21192;40.182;44.516;2023-05-14T04:38:30;6.13;;;3.50;;
34988;SDS011;21192;40.182;44.516;2023-05-14T04:40:56;9.43;;;3.60;;
34988;SDS011;21192;40.182;44.516;2023-05-14T04:43:22;7.90;;;4.25;;
34988;SDS011;21192;40.182;44.516;2023-05-14T04:45:48;11.10;;;4.30;;
34988;SDS011;21192;40.182;44.516;2023-05-14T04:48:15;7.93;;;4.60;;
34988;SDS011;21192;40.182;44.516;2023-05-14T04:50:41;11.32;;;5.38;;
34988;SDS011;21192;40.182;44.516;2023-05-14T04:53:08;8.65;;;5.68;;
34988;SDS011;21192;40.182;44.516;2023-05-14T04:55:34;11.10;;;6.13;;
34988;SDS011;21192;40.182;44.516;2023-05-14T04:58:00;15.65;;;6.60;;
34988;SDS011;21192;40.182;44.516;2023-05-14T05:00:27;11.02;;;6.65;;
34988;SDS011;21192;40.182;44.516;2023-05-14T05:02:54;10.02;;;6.28;;
34988;SDS011;21192;40.182;44.516;2023-05-14T05:05:20;14.73;;;6.45;;
34988;SDS011;21192;40.182;44.516;2023-05-14T05:07:46;11.85;;;5.95;;
34988;SDS011;21192;40.182;44.516;2023-05-14T05:10:12;12.90;;;5.93;;
34988;SDS011;21192;40.182;44.516;2023-05-14T05:12:38;9.02;;;5.68;;
34988;SDS011;21192;40.182;44.516;2023-05-14T05:15:04;9.27;;;5.80;;
34988;SDS011;21192;40.182;44.516;2023-05-14T05:17:30;14.13;;;6.30;;
34988;SDS011;21192;40.182;44.516;2023-05-14T05:19:56;11.88;;;5.95;;
34988;SDS011;21192;40.182;44.516;2023-05-14T05:22:22;12.77;;;5.75;;
34988;SDS011;21192;40.182;44.516;2023-05-14T05:24:48;14.82;;;5.90;;
34988;SDS011;21192;40.182;44.516;2023-05-14T05:27:14;11.27;;;5.40;;
34988;SDS011;21192;40.182;44.516;2023-05-14T05:29:40;9.18;;;4.00;;
34988;SDS011;21192;40.182;44.516;2023-05-14T05:32:05;11.25;;;4.30;;
34988;SDS011;21192;40.182;44.516;2023-05-14T05:34:32;7.93;;;3.55;;
34988;SDS011;21192;40.182;44.516;2023-05-14T05:36:58;9.38;;;3.78;;
34988;SDS011;21192;40.182;44.516;2023-05-14T05:39:24;7.00;;;3.47;;
34988;SDS011;21192;40.182;44.516;2023-05-14T05:41:50;7.20;;;3.67;;
34988;SDS011;21192;40.182;44.516;2023-05-14T05:44:16;12.77;;;3.97;;
34988;SDS011;21192;40.182;44.516;2023-05-14T05:46:42;7.55;;;3.60;;
34988;SDS011;21192;40.182;44.516;2023-05-14T05:49:07;6.97;;;3.42;;
34988;SDS011;21192;40.182;44.516;2023-05-14T05:51:33;6.80;;;3.50;;
34988;SDS011;21192;40.182;44.516;2023-05-14T05:53:59;4.93;;;3.08;;
34988;SDS011;21192;40.182;44.516;2023-05-14T05:56:25;7.20;;;3.30;;
34988;SDS011;21192;40.182;44.516;2023-05-14T05:58:51;5.80;;;3.42;;
34988;SDS011;21192;40.182;44.516;2023-05-14T06:01:16;9.07;;;3.92;;
34988;SDS011;21192;40.182;44.516;2023-05-14T06:03:42;6.15;;;3.00;;
34988;SDS011;21192;40.182;44.516;2023-05-14T06:06:08;9.63;;;3.35;;
34988;SDS011;21192;40.182;44.516;2023-05-14T06:08:34;10.68;;;3.28;;
34988;SDS011;21192;40.182;44.516;2023-05-14T06:11:00;6.32;;;3.42;;
34988;SDS011;21192;40.182;44.516;2023-05-14T06:13:25;7.22;;;3.65;;
34988;SDS011;21192;40.182;44.516;2023-05-14T06:15:51;8.65;;;4.55;;
34988;SDS011;21192;40.182;44.516;2023-05-14T06:18:17;11.88;;;4.90;;
34988;SDS011;21192;40.182;44.516;2023-05-14T06:20:43;9.30;;;5.07;;
34988;SDS011;21192;40.182;44.516;2023-05-14T06:23:09;11.32;;;4.38;;
34988;SDS011;21192;40.182;44.516;2023-05-14T06:25:36;9.23;;;4.47;;
34988;SDS011;21192;40.182;44.516;2023-05-14T06:28:02;10.30;;;4.72;;
34988;SDS011;21192;40.182;44.516;2023-05-14T06:30:28;9.77;;;4.18;;
34988;SDS011;21192;40.182;44.516;2023-05-14T06:32:53;12.02;;;4.65;;
34988;SDS011;21192;40.182;44.516;2023-05-14T06:35:19;11.88;;;4.80;;
34988;SDS011;21192;40.182;44.516;2023-05-14T06:37:45;10.63;;;4.60;;
34988;SDS011;21192;40.182;44.516;2023-05-14T06:40:11;11.45;;;4.63;;
34988;SDS011;21192;40.182;44.516;2023-05-14T06:42:39;12.50;;;5.10;;
34988;SDS011;21192;40.182;44.516;2023-05-14T06:45:06;10.55;;;5.10;;
34988;SDS011;21192;40.182;44.516;2023-05-14T06:47:32;9.32;;;4.97;;
34988;SDS011;21192;40.182;44.516;2023-05-14T06:49:58;15.52;;;6.50;;
34988;SDS011;21192;40.182;44.516;2023-05-14T06:52:25;12.38;;;5.30;;
34988;SDS011;21192;40.182;44.516;2023-05-14T06:54:51;11.27;;;4.97;;
34988;SDS011;21192;40.182;44.516;2023-05-14T06:57:17;10.40;;;4.88;;
34988;SDS011;21192;40.182;44.516;2023-05-14T06:59:43;10.52;;;5.18;;
34988;SDS011;21192;40.182;44.516;2023-05-14T07:02:09;12.82;;;5.60;;
34988;SDS011;21192;40.182;44.516;2023-05-14T07:04:35;9.20;;;4.82;;
34988;SDS011;21192;40.182;44.516;2023-05-14T07:07:00;10.73;;;3.95;;
34988;SDS011;21192;40.182;44.516;2023-05-14T07:09:26;7.50;;;3.80;;
34988;SDS011;21192;40.182;44.516;2023-05-14T07:11:52;9.52;;;3.33;;
34988;SDS011;21192;40.182;44.516;2023-05-14T07:14:18;6.93;;;2.60;;
34988;SDS011;21192;40.182;44.516;2023-05-14T07:16:44;5.60;;;1.92;;
34988;SDS011;21192;40.182;44.516;2023-05-14T07:19:11;11.98;;;2.45;;
34988;SDS011;21192;40.182;44.516;2023-05-14T07:21:37;5.28;;;1.10;;
34988;SDS011;21192;40.182;44.516;2023-05-14T07:24:03;2.10;;;0.80;;
34988;SDS011;21192;40.182;44.516;2023-05-14T07:26:29;4.20;;;1.10;;
34988;SDS011;21192;40.182;44.516;2023-05-14T07:28:55;2.78;;;0.70;;
34988;SDS011;21192;40.182;44.516;2023-05-14T07:31:21;2.58;;;0.95;;
34988;SDS011;21192;40.182;44.516;2023-05-14T07:33:47;10.38;;;1.20;;
34988;SDS011;21192;40.182;44.516;2023-05-14T07:36:13;5.15;;;2.00;;
34988;SDS011;21192;40.182;44.516;2023-05-14T07:38:39;5.38;;;1.20;;
34988;SDS011;21192;40.182;44.516;2023-05-14T07:41:05;1.65;;;0.50;;
34988;SDS011;21192;40.182;44.516;2023-05-14T07:43:30;2.85;;;0.47;;
34988;SDS011;21192;40.182;44.516;2023-05-14T07:45:56;2.55;;;0.30;;
34988;SDS011;21192;40.182;44.516;2023-05-14T07:48:22;3.40;;;0.40;;
34988;SDS011;21192;40.182;44.516;2023-05-14T07:50:48;2.97;;;0.63;;
34988;SDS011;21192;40.182;44.516;2023-05-14T07:53:14;4.00;;;0.60;;
34988;SDS011;21192;40.182;44.516;2023-05-14T07:55:40;2.03;;;0.30;;
34988;SDS011;21192;40.182;44.516;2023-05-14T07:58:06;0.70;;;0.30;;
34988;SDS011;21192;40.182;44.516;2023-05-14T08:00:32;3.28;;;0.45;;
34988;SDS011;21192;40.182;44.516;2023-05-14T08:02:57;1.73;;;0.30;;
34988;SDS011;21192;40.182;44.516;2023-05-14T08:05:23;5.93;;;0.57;;
34988;SDS011;21192;40.182;44.516;2023-05-14T08:07:50;1.92;;;0.80;;
34988;SDS011;21192;40.182;44.516;2023-05-14T08:10:16;4.10;;;0.50;;
34988;SDS011;21192;40.182;44.516;2023-05-14T08:12:42;3.40;;;0.50;;
34988;SDS011;21192;40.182;44.516;2023-05-14T08:15:08;5.35;;;1.77;;
34988;SDS011;21192;40.182;44.516;2023-05-14T08:17:34;1.10;;;0.60;;
34988;SDS011;21192;40.182;44.516;2023-05-14T08:20:00;6.05;;;0.80;;
34988;SDS011;21192;40.182;44.516;2023-05-14T08:22:26;4.13;;;1.17;;
34988;SDS011;21192;40.182;44.516;2023-05-14T08:24:52;5.32;;;1.23;;
34988;SDS011;21192;40.182;44.516;2023-05-14T08:27:18;10.95;;;1.13;;
34988;SDS011;21192;40.182;44.516;2023-05-14T08:29:44;2.08;;;0.73;;
34988;SDS011;21192;40.182;44.516;2023-05-14T08:32:11;5.97;;;0.98;;
34988;SDS011;21192;40.182;44.516;2023-05-14T08:34:37;7.57;;;1.15;;
34988;SDS011;21192;40.182;44.516;2023-05-14T08:37:02;2.92;;;0.90;;
34988;SDS011;21192;40.182;44.516;2023-05-14T08:39:28;5.45;;;1.55;;
34988;SDS011;21192;40.182;44.516;2023-05-14T08:41:54;2.65;;;0.93;;
34988;SDS011;21192;40.182;44.516;2023-05-14T08:45:04;2.85;;;0.90;;
34988;SDS011;21192;40.182;44.516;2023-05-14T08:47:14;5.25;;;1.98;;
34988;SDS011;21192;40.182;44.516;2023-05-14T08:49:42;4.03;;;1.63;;
34988;SDS011;21192;40.182;44.516;2023-05-14T08:52:10;4.85;;;1.40;;
34988;SDS011;21192;40.182;44.516;2023-05-14T08:54:37;4.22;;;1.17;;
34988;SDS011;21192;40.182;44.516;2023-05-14T08:57:09;8.52;;;1.30;;
34988;SDS011;21192;40.182;44.516;2023-05-14T08:59:35;3.05;;;0.70;;
34988;SDS011;21192;40.182;44.516;2023-05-14T09:02:02;6.47;;;1.30;;
34988;SDS011;21192;40.182;44.516;2023-05-14T09:04:30;3.28;;;1.20;;
34988;SDS011;21192;40.182;44.516;2023-05-14T09:06:57;2.90;;;1.17;;
34988;SDS011;21192;40.182;44.516;2023-05-14T09:09:26;3.38;;;1.00;;
34988;SDS011;21192;40.182;44.516;2023-05-14T09:11:52;3.28;;;1.00;;
34988;SDS011;21192;40.182;44.516;2023-05-14T09:14:19;2.33;;;0.80;;
34988;SDS011;21192;40.182;44.516;2023-05-14T09:16:47;3.53;;;2.00;;
34988;SDS011;21192;40.182;44.516;2023-05-14T09:19:14;4.97;;;2.53;;
34988;SDS011;21192;40.182;44.516;2023-05-14T09:21:43;1.95;;;0.90;;
34988;SDS011;21192;40.182;44.516;2023-05-14T09:24:17;2.20;;;0.70;;
34988;SDS011;21192;40.182;44.516;2023-05-14T09:26:48;2.65;;;1.13;;
34988;SDS011;21192;40.182;44.516;2023-05-14T09:29:17;1.63;;;0.88;;
34988;SDS011;21192;40.182;44.516;2023-05-14T09:31:44;8.90;;;3.83;;
34988;SDS011;21192;40.182;44.516;2023-05-14T09:34:10;7.10;;;3.13;;
34988;SDS011;21192;40.182;44.516;2023-05-14T09:36:36;4.28;;;0.90;;
34988;SDS011;21192;40.182;44.516;2023-05-14T09:39:02;10.00;;;6.15;;
34988;SDS011;21192;40.182;44.516;2023-05-14T09:41:28;5.57;;;2.40;;
34988;SDS011;21192;40.182;44.516;2023-05-14T09:43:54;2.08;;;0.77;;
34988;SDS011;21192;40.182;44.516;2023-05-14T09:46:21;3.97;;;1.73;;
34988;SDS011;21192;40.182;44.516;2023-05-14T09:48:48;3.35;;;1.30;;
34988;SDS011;21192;40.182;44.516;2023-05-14T09:51:15;4.30;;;0.95;;
34988;SDS011;21192;40.182;44.516;2023-05-14T09:53:45;3.22;;;1.23;;
34988;SDS011;21192;40.182;44.516;2023-05-14T09:56:11;2.85;;;0.70;;
34988;SDS011;21192;40.182;44.516;2023-05-14T09:58:37;12.90;;;2.90;;
34988;SDS011;21192;40.182;44.516;2023-05-14T10:01:02;4.63;;;1.30;;
34988;SDS011;21192;40.182;44.516;2023-05-14T10:03:30;2.65;;;1.25;;
34988;SDS011;21192;40.182;44.516;2023-05-14T10:06:00;3.83;;;0.95;;
34988;SDS011;21192;40.182;44.516;2023-05-14T10:08:32;3.35;;;1.50;;
34988;SDS011;21192;40.182;44.516;2023-05-14T10:11:00;5.72;;;2.13;;
34988;SDS011;21192;40.182;44.516;2023-05-14T10:13:32;4.10;;;1.48;;
34988;SDS011;21192;40.182;44.516;2023-05-14T10:16:49;1.88;;;1.00;;
34988;SDS011;21192;40.182;44.516;2023-05-14T10:18:54;6.05;;;1.10;;
34988;SDS011;21192;40.182;44.516;2023-05-14T10:21:24;4.22;;;1.50;;
34988;SDS011;21192;40.182;44.516;2023-05-14T10:23:53;4.88;;;2.00;;
34988;SDS011;21192;40.182;44.516;2023-05-14T10:26:21;3.83;;;1.77;;
34988;SDS011;21192;40.182;44.516;2023-05-14T10:28:46;4.65;;;2.55;;
34988;SDS011;21192;40.182;44.516;2023-05-14T10:31:13;4.20;;;1.95;;
34988;SDS011;21192;40.182;44.516;2023-05-14T10:33:45;4.90;;;2.15;;
34988;SDS011;21192;40.182;44.516;2023-05-14T10:36:14;4.88;;;1.50;;
34988;SDS011;21192;40.182;44.516;2023-05-14T10:38:41;4.90;;;1.75;;
34988;SDS011;21192;40.182;44.516;2023-05-14T10:41:11;2.08;;;1.08;;
34988;SDS011;21192;40.182;44.516;2023-05-14T10:43:42;4.80;;;2.00;;
34988;SDS011;21192;40.182;44.516;2023-05-14T10:46:09;5.20;;;1.55;;
34988;SDS011;21192;40.182;44.516;2023-05-14T10:48:37;2.20;;;1.05;;
34988;SDS011;21192;40.182;44.516;2023-05-14T10:51:06;4.00;;;1.33;;
34988;SDS011;21192;40.182;44.516;2023-05-14T10:53:39;5.10;;;1.38;;
34988;SDS011;21192;40.182;44.516;2023-05-14T10:56:07;2.63;;;1.42;;
34988;SDS011;21192;40.182;44.516;2023-05-14T10:58:35;2.20;;;1.10;;
34988;SDS011;21192;40.182;44.516;2023-05-14T11:01:02;4.65;;;1.95;;
34988;SDS011;21192;40.182;44.516;2023-05-14T11:03:30;4.13;;;1.92;;
34988;SDS011;21192;40.182;44.516;2023-05-14T11:06:02;3.00;;;1.20;;
34988;SDS011;21192;40.182;44.516;2023-05-14T11:08:29;4.60;;;2.50;;
34988;SDS011;21192;40.182;44.516;2023-05-14T11:10:56;7.15;;;2.78;;
34988;SDS011;21192;40.182;44.516;2023-05-14T11:13:22;12.88;;;2.50;;
34988;SDS011;21192;40.182;44.516;2023-05-14T11:15:50;6.00;;;1.60;;
34988;SDS011;21192;40.182;44.516;2023-05-14T11:18:26;4.63;;;2.13;;
34988;SDS011;21192;40.182;44.516;2023-05-14T11:20:53;6.28;;;1.60;;
34988;SDS011;21192;40.182;44.516;2023-05-14T11:23:22;3.85;;;1.90;;
34988;SDS011;21192;40.182;44.516;2023-05-14T11:25:50;5.40;;;2.15;;
34988;SDS011;21192;40.182;44.516;2023-05-14T11:28:19;7.93;;;3.58;;
34988;SDS011;21192;40.182;44.516;2023-05-14T11:30:49;5.18;;;1.85;;
34988;SDS011;21192;40.182;44.516;2023-05-14T11:33:15;3.58;;;1.77;;
34988;SDS011;21192;40.182;44.516;2023-05-14T11:35:42;9.35;;;3.08;;
34988;SDS011;21192;40.182;44.516;2023-05-14T11:38:19;4.28;;;1.25;;
34988;SDS011;21192;40.182;44.516;2023-05-14T11:40:52;5.35;;;1.80;;
34988;SDS011;21192;40.182;44.516;2023-05-14T11:43:21;4.45;;;2.35;;
34988;SDS011;21192;40.182;44.516;2023-05-14T11:45:48;6.00;;;2.17;;
34988;SDS011;21192;40.182;44.516;2023-05-14T11:48:16;4.43;;;0.80;;
34988;SDS011;21192;40.182;44.516;2023-05-14T11:50:46;2.90;;;1.38;;
34988;SDS011;21192;40.182;44.516;2023-05-14T11:53:19;8.20;;;2.10;;
34988;SDS011;21192;40.182;44.516;2023-05-14T11:55:50;6.15;;;2.83;;
34988;SDS011;21192;40.182;44.516;2023-05-14T11:58:21;5.47;;;2.42;;
34988;SDS011;21192;40.182;44.516;2023-05-14T12:00:51;6.53;;;2.92;;
34988;SDS011;21192;40.182;44.516;2023-05-14T12:03:19;8.18;;;3.65;;
34988;SDS011;21192;40.182;44.516;2023-05-14T12:05:55;5.57;;;2.00;;
34988;SDS011;21192;40.182;44.516;2023-05-14T12:08:26;3.38;;;1.80;;
34988;SDS011;21192;40.182;44.516;2023-05-14T12:10:53;6.72;;;1.42;;
34988;SDS011;21192;40.182;44.516;2023-05-14T12:13:20;4.13;;;1.10;;
34988;SDS011;21192;40.182;44.516;2023-05-14T12:15:53;4.60;;;1.73;;
34988;SDS011;21192;40.182;44.516;2023-05-14T12:18:21;4.03;;;1.70;;
34988;SDS011;21192;40.182;44.516;2023-05-14T12:20:48;2.53;;;1.10;;
34988;SDS011;21192;40.182;44.516;2023-05-14T12:23:15;3.40;;;1.10;;
34988;SDS011;21192;40.182;44.516;2023-05-14T12:25:51;3.70;;;1.77;;
34988;SDS011;21192;40.182;44.516;2023-05-14T12:28:18;3.72;;;1.45;;
34988;SDS011;21192;40.182;44.516;2023-05-14T12:30:44;4.43;;;1.90;;
34988;SDS011;21192;40.182;44.516;2023-05-14T12:33:11;5.03;;;2.42;;
34988;SDS011;21192;40.182;44.516;2023-05-14T12:35:38;3.17;;;1.42;;
34988;SDS011;21192;40.182;44.516;2023-05-14T12:38:04;4.32;;;1.80;;
34988;SDS011;21192;40.182;44.516;2023-05-14T12:40:30;6.40;;;2.90;;
34988;SDS011;21192;40.182;44.516;2023-05-14T12:42:56;5.32;;;1.60;;
34988;SDS011;21192;40.182;44.516;2023-05-14T12:45:22;9.25;;;3.97;;
34988;SDS011;21192;40.182;44.516;2023-05-14T12:47:48;5.38;;;2.67;;
34988;SDS011;21192;40.182;44.516;2023-05-14T12:50:15;3.15;;;1.13;;
34988;SDS011;21192;40.182;44.516;2023-05-14T12:52:41;6.68;;;2.30;;
34988;SDS011;21192;40.182;44.516;2023-05-14T12:55:07;6.05;;;3.25;;
34988;SDS011;21192;40.182;44.516;2023-05-14T12:57:33;4.13;;;2.05;;
34988;SDS011;21192;40.182;44.516;2023-05-14T12:59:59;6.03;;;2.78;;
34988;SDS011;21192;40.182;44.516;2023-05-14T13:02:25;6.78;;;3.22;;
34988;SDS011;21192;40.182;44.516;2023-05-14T13:04:51;3.28;;;1.45;;
34988;SDS011;21192;40.182;44.516;2023-05-14T13:07:17;8.70;;;2.65;;
34988;SDS011;21192;40.182;44.516;2023-05-14T13:09:42;8.55;;;4.05;;
34988;SDS011;21192;40.182;44.516;2023-05-14T13:12:08;9.57;;;4.38;;
34988;SDS011;21192;40.182;44.516;2023-05-14T13:14:34;6.40;;;3.05;;
34988;SDS011;21192;40.182;44.516;2023-05-14T13:17:00;7.57;;;3.53;;
34988;SDS011;21192;40.182;44.516;2023-05-14T13:19:26;7.93;;;3.78;;
34988;SDS011;21192;40.182;44.516;2023-05-14T13:21:52;9.45;;;2.58;;
34988;SDS011;21192;40.182;44.516;2023-05-14T13:24:18;8.43;;;2.85;;
34988;SDS011;21192;40.182;44.516;2023-05-14T13:26:44;6.53;;;2.50;;
34988;SDS011;21192;40.182;44.516;2023-05-14T13:29:10;5.80;;;2.75;;
34988;SDS011;21192;40.182;44.516;2023-05-14T13:31:36;5.85;;;2.50;;
34988;SDS011;21192;40.182;44.516;2023-05-14T13:34:02;6.05;;;2.95;;
34988;SDS011;21192;40.182;44.516;2023-05-14T13:36:28;6.05;;;2.85;;
34988;SDS011;21192;40.182;44.516;2023-05-14T13:38:56;9.18;;;3.50;;
34988;SDS011;21192;40.182;44.516;2023-05-14T13:41:22;11.00;;;4.05;;
34988;SDS011;21192;40.182;44.516;2023-05-14T13:43:48;7.22;;;2.95;;
34988;SDS011;21192;40.182;44.516;2023-05-14T13:46:14;7.70;;;2.63;;
34988;SDS011;21192;40.182;44.516;2023-05-14T13:48:39;8.02;;;3.20;;
34988;SDS011;21192;40.182;44.516;2023-05-14T13:51:06;6.90;;;3.47;;
34988;SDS011;21192;40.182;44.516;2023-05-14T13:53:31;5.93;;;2.17;;
34988;SDS011;21192;40.182;44.516;2023-05-14T13:55:57;4.03;;;1.40;;
34988;SDS011;21192;40.182;44.516;2023-05-14T13:58:26;3.95;;;1.15;;
34988;SDS011;21192;40.182;44.516;2023-05-14T14:00:52;4.32;;;1.25;;
34988;SDS011;21192;40.182;44.516;2023-05-14T14:03:18;8.73;;;2.53;;
34988;SDS011;21192;40.182;44.516;2023-05-14T14:05:44;6.25;;;2.58;;
34988;SDS011;21192;40.182;44.516;2023-05-14T14:08:10;11.43;;;4.18;;
34988;SDS011;21192;40.182;44.516;2023-05-14T14:10:36;7.75;;;4.00;;
34988;SDS011;21192;40.182;44.516;2023-05-14T14:13:03;9.35;;;3.50;;
34988;SDS011;21192;40.182;44.516;2023-05-14T14:15:29;12.95;;;4.85;;
34988;SDS011;21192;40.182;44.516;2023-05-14T14:17:55;10.60;;;5.03;;
34988;SDS011;21192;40.182;44.516;2023-05-14T14:20:20;18.30;;;9.63;;
34988;SDS011;21192;40.182;44.516;2023-05-14T14:22:46;13.82;;;7.05;;
34988;SDS011;21192;40.182;44.516;2023-05-14T14:25:12;10.80;;;3.70;;
34988;SDS011;21192;40.182;44.516;2023-05-14T14:27:38;10.43;;;2.40;;
34988;SDS011;21192;40.182;44.516;2023-05-14T14:30:08;8.32;;;2.45;;
34988;SDS011;21192;40.182;44.516;2023-05-14T14:32:44;8.05;;;2.60;;